Time;durP1;ratioP1;P1;durP2;ratioP2;P2;SDS_P1;SDS_P2;PMS_P1;PMS_P2;Temp;Humidity;BMP_temperature;BMP_pressure;BME280_temperature;BME280_humidity;BME280_pressure;Samples;Min_cycle;Max_cycle;Signal;HPM_P1;HPM_P2
2023/09/03 00:01:58;;;;;;;5.85;5.47;;;;;;;;;;4985658;28;100206;-74
2023/09/03 00:04:25;;;;;;;7.25;6.30;;;;;;;;;;4986297;28;99821;-74
2023/09/03 00:06:51;;;;;;;6.50;5.90;;;;;;;;;;4990352;28;100498;-73
2023/09/03 00:09:18;;;;;;;6.43;5.63;;;;;;;;;;4985476;28;98908;-75
2023/09/03 00:11:44;;;;;;;5.93;5.43;;;;;;;;;;4986563;28;100412;-75
2023/09/03 00:14:11;;;;;;;6.65;6.13;;;;;;;;;;4985780;28;100032;-74
2023/09/03 00:16:38;;;;;;;7.07;6.07;;;;;;;;;;4985571;28;99329;-74
2023/09/03 00:19:04;;;;;;;6.13;5.63;;;;;;;;;;4986562;28;99831;-74
2023/09/03 00:21:31;;;;;;;6.22;5.65;;;;;;;;;;4986197;28;100266;-75
2023/09/03 00:23:57;;;;;;;5.72;5.20;;;;;;;;;;4986644;28;101105;-73
2023/09/03 00:26:26;;;;;;;7.63;6.00;;;;;;;;;;4986133;28;99104;-74
2023/09/03 00:28:57;;;;;;;6.75;6.15;;;;;;;;;;4988781;28;99649;-74
2023/09/03 00:31:26;;;;;;;7.15;6.38;;;;;;;;;;4987222;28;98904;-74
2023/09/03 00:33:53;;;;;;;7.10;6.50;;;;;;;;;;4989751;28;99320;-73
2023/09/03 00:36:20;;;;;;;6.00;5.50;;;;;;;;;;4988523;28;98776;-74
2023/09/03 00:38:49;;;;;;;5.97;5.47;;;;;;;;;;4989284;28;99216;-74
2023/09/03 00:41:16;;;;;;;6.20;5.60;;;;;;;;;;4988870;28;99142;-74
2023/09/03 00:43:43;;;;;;;6.63;6.03;;;;;;;;;;4988815;28;98495;-73
2023/09/03 00:46:09;;;;;;;10.05;5.95;;;;;;;;;;4989708;28;98888;-74
2023/09/03 00:48:37;;;;;;;6.45;5.85;;;;;;;;;;4989766;28;99331;-73
2023/09/03 00:51:05;;;;;;;6.45;5.90;;;;;;;;;;4991287;28;98452;-74
2023/09/03 00:53:33;;;;;;;7.57;6.07;;;;;;;;;;4989079;28;99030;-74
2023/09/03 00:55:59;;;;;;;6.45;5.88;;;;;;;;;;4988109;28;101492;-74
2023/09/03 00:58:26;;;;;;;11.02;6.72;;;;;;;;;;4987365;28;99842;-74
2023/09/03 01:00:53;;;;;;;7.05;6.15;;;;;;;;;;4989337;28;99090;-73
2023/09/03 01:03:20;;;;;;;6.90;6.20;;;;;;;;;;4988510;28;99363;-75
2023/09/03 01:05:46;;;;;;;6.90;5.78;;;;;;;;;;4988607;28;99529;-73
2023/09/03 01:08:13;;;;;;;6.53;5.82;;;;;;;;;;4988854;28;99310;-73
2023/09/03 01:10:45;;;;;;;6.60;6.00;;;;;;;;;;4991421;28;99050;-74
2023/09/03 01:13:13;;;;;;;;;;;;;;;;;;4989554;28;99299;-73
2023/09/03 01:15:42;;;;;;;6.97;6.03;;;;;;;;;;4986829;28;128385;-74
2023/09/03 01:18:15;;;;;;;6.18;5.65;;;;;;;;;;4988301;28;98899;-74
2023/09/03 01:20:44;;;;;;;8.15;6.15;;;;;;;;;;4988134;28;102299;-74
2023/09/03 01:23:10;;;;;;;7.15;6.28;;;;;;;;;;4987270;28;99379;-74
2023/09/03 01:25:45;;;;;;;9.75;5.68;;;;;;;;;;4988249;28;99169;-75
2023/09/03 01:28:29;;;;;;;8.43;6.00;;;;;;;;;;4988307;28;99796;-72
2023/09/03 01:30:57;;;;;;;6.78;6.13;;;;;;;;;;4988672;28;99841;-73
2023/09/03 01:33:26;;;;;;;6.95;6.18;;;;;;;;;;4991157;28;99570;-73
2023/09/03 01:35:53;;;;;;;9.50;5.57;;;;;;;;;;4988635;28;100794;-74
2023/09/03 01:38:20;;;;;;;7.93;5.95;;;;;;;;;;4988395;28;98706;-74
2023/09/03 01:40:48;;;;;;;8.77;6.50;;;;;;;;;;4986481;28;101227;-73
2023/09/03 01:43:14;;;;;;;6.68;6.18;;;;;;;;;;4987712;28;100119;-73
2023/09/03 01:45:45;;;;;;;7.25;6.55;;;;;;;;;;4989249;28;98725;-73
2023/09/03 01:48:28;;;;;;;7.50;6.88;;;;;;;;;;4988126;28;98982;-75
2023/09/03 01:51:22;;;;;;;7.00;6.25;;;;;;;;;;4988635;28;98986;-76
2023/09/03 01:53:54;;;;;;;7.15;6.55;;;;;;;;;;4986174;28;99911;-74
2023/09/03 01:56:22;;;;;;;6.97;6.47;;;;;;;;;;4989846;28;101709;-75
2023/09/03 01:58:51;;;;;;;8.32;6.55;;;;;;;;;;4987350;28;101738;-74
2023/09/03 02:01:19;;;;;;;7.35;6.43;;;;;;;;;;4985843;28;101210;-74
2023/09/03 02:03:51;;;;;;;8.65;6.35;;;;;;;;;;4988708;28;98526;-73
2023/09/03 02:06:17;;;;;;;8.00;6.53;;;;;;;;;;4986759;28;100116;-74
2023/09/03 02:08:44;;;;;;;7.72;6.93;;;;;;;;;;4987297;28;99093;-73
2023/09/03 02:11:10;;;;;;;9.63;7.25;;;;;;;;;;4988897;28;98816;-73
2023/09/03 02:13:37;;;;;;;7.45;6.75;;;;;;;;;;4988244;28;99160;-74
2023/09/03 02:16:03;;;;;;;6.93;6.32;;;;;;;;;;4986923;28;99245;-74
2023/09/03 02:18:30;;;;;;;7.15;6.45;;;;;;;;;;4990921;28;99229;-73
2023/09/03 02:20:56;;;;;;;7.63;6.93;;;;;;;;;;4987489;28;99410;-73
2023/09/03 02:23:22;;;;;;;7.05;6.30;;;;;;;;;;4987855;28;99098;-73
2023/09/03 02:25:58;;;;;;;7.50;6.70;;;;;;;;;;4987875;28;99927;-74
2023/09/03 02:28:25;;;;;;;7.55;6.88;;;;;;;;;;4987267;28;99368;-73
2023/09/03 02:30:52;;;;;;;12.32;6.85;;;;;;;;;;4986713;28;101715;-73
2023/09/03 02:33:19;;;;;;;8.02;7.22;;;;;;;;;;4987760;28;99121;-74
2023/09/03 02:35:47;;;;;;;9.75;7.95;;;;;;;;;;4986327;28;99436;-74
2023/09/03 02:38:14;;;;;;;12.32;8.25;;;;;;;;;;4985968;28;100363;-74
2023/09/03 02:40:40;;;;;;;8.95;7.78;;;;;;;;;;4991079;28;99293;-75
2023/09/03 02:43:07;;;;;;;9.35;7.85;;;;;;;;;;4986649;28;99251;-75
2023/09/03 02:45:33;;;;;;;8.13;7.43;;;;;;;;;;4986069;28;100625;-74
2023/09/03 02:47:59;;;;;;;11.32;6.95;;;;;;;;;;4987804;28;99319;-73
2023/09/03 02:50:26;;;;;;;9.48;7.38;;;;;;;;;;4986928;28;99446;-73
2023/09/03 02:52:52;;;;;;;11.75;7.20;;;;;;;;;;4987591;28;99172;-74
2023/09/03 02:55:19;;;;;;;9.27;8.02;;;;;;;;;;4986072;28;99126;-73
2023/09/03 02:57:45;;;;;;;8.85;7.97;;;;;;;;;;4985499;28;101734;-74
2023/09/03 03:00:12;;;;;;;7.75;6.95;;;;;;;;;;4991095;28;98883;-74
2023/09/03 03:02:39;;;;;;;7.28;6.60;;;;;;;;;;4985752;28;101024;-74
2023/09/03 03:05:05;;;;;;;8.45;7.65;;;;;;;;;;4985218;28;102185;-74
2023/09/03 03:07:32;;;;;;;7.30;6.70;;;;;;;;;;4985035;28;100215;-74
2023/09/03 03:10:00;;;;;;;15.18;7.53;;;;;;;;;;4987398;28;98977;-75
2023/09/03 03:12:28;;;;;;;8.00;7.22;;;;;;;;;;4985009;28;101733;-76
2023/09/03 03:14:55;;;;;;;9.18;6.68;;;;;;;;;;4987070;28;99343;-74
2023/09/03 03:17:23;;;;;;;9.20;7.40;;;;;;;;;;4984883;28;101583;-74
2023/09/03 03:19:52;;;;;;;7.15;6.55;;;;;;;;;;4987320;28;98704;-75
2023/09/03 03:22:19;;;;;;;9.82;7.07;;;;;;;;;;4988825;28;101808;-74
2023/09/03 03:24:46;;;;;;;7.82;7.03;;;;;;;;;;4985926;28;99884;-73
2023/09/03 03:27:14;;;;;;;9.48;6.88;;;;;;;;;;4986679;28;100135;-74
2023/09/03 03:29:40;;;;;;;7.53;6.93;;;;;;;;;;4987032;28;99904;-74
2023/09/03 03:32:07;;;;;;;7.85;7.03;;;;;;;;;;4985330;28;99348;-74
2023/09/03 03:34:41;;;;;;;7.60;6.97;;;;;;;;;;4985793;28;102214;-75
2023/09/03 03:37:12;;;;;;;9.65;7.20;;;;;;;;;;4986353;28;100151;-75
2023/09/03 03:39:38;;;;;;;8.57;7.72;;;;;;;;;;4985088;28;99152;-74
2023/09/03 03:42:05;;;;;;;8.80;7.85;;;;;;;;;;4987687;28;99074;-75
2023/09/03 03:44:32;;;;;;;8.38;7.57;;;;;;;;;;4990585;28;98680;-74
2023/09/03 03:46:58;;;;;;;9.98;6.57;;;;;;;;;;4986542;28;99046;-75
2023/09/03 03:49:25;;;;;;;7.70;6.90;;;;;;;;;;4987267;28;98720;-75
2023/09/03 03:51:51;;;;;;;7.35;6.80;;;;;;;;;;4985376;28;98581;-74
2023/09/03 03:54:18;;;;;;;7.47;6.82;;;;;;;;;;4985895;28;99134;-74
2023/09/03 03:56:47;;;;;;;7.93;7.30;;;;;;;;;;4986354;28;100028;-74
2023/09/03 03:59:14;;;;;;;14.50;8.13;;;;;;;;;;4986155;28;99874;-74
2023/09/03 04:01:40;;;;;;;8.20;7.57;;;;;;;;;;4985979;28;98973;-74
2023/09/03 04:04:07;;;;;;;11.27;7.50;;;;;;;;;;4986743;28;98960;-73
2023/09/03 04:06:33;;;;;;;8.65;7.40;;;;;;;;;;4989932;28;99309;-74
2023/09/03 04:09:00;;;;;;;8.77;6.78;;;;;;;;;;4988794;28;102008;-75
2023/09/03 04:11:27;;;;;;;7.68;7.03;;;;;;;;;;4988463;28;98927;-74
2023/09/03 04:13:53;;;;;;;8.18;6.93;;;;;;;;;;4989537;28;98607;-74
2023/09/03 04:16:20;;;;;;;7.32;6.72;;;;;;;;;;4988344;28;102013;-76
2023/09/03 04:18:51;;;;;;;7.32;6.72;;;;;;;;;;4988650;28;99228;-74
2023/09/03 04:21:18;;;;;;;8.75;7.00;;;;;;;;;;4986960;28;102465;-75
2023/09/03 04:23:44;;;;;;;10.18;7.03;;;;;;;;;;4989961;28;98705;-74
2023/09/03 04:26:11;;;;;;;10.13;7.50;;;;;;;;;;4988350;28;100960;-73
2023/09/03 04:28:55;;;;;;;8.00;7.28;;;;;;;;;;4992743;28;99198;-74
2023/09/03 04:31:23;;;;;;;7.70;6.90;;;;;;;;;;4989688;28;99028;-74
2023/09/03 04:33:50;;;;;;;8.70;7.40;;;;;;;;;;4988514;28;101974;-73
2023/09/03 04:36:17;;;;;;;9.23;7.68;;;;;;;;;;4988883;28;98693;-74
2023/09/03 04:38:44;;;;;;;11.45;7.45;;;;;;;;;;4988584;28;100616;-74
2023/09/03 04:41:13;;;;;;;12.85;7.68;;;;;;;;;;4987512;28;101159;-75
2023/09/03 04:43:47;;;;;;;10.63;7.63;;;;;;;;;;4987403;28;102051;-73
2023/09/03 04:46:19;;;;;;;13.15;8.07;;;;;;;;;;4987218;28;101606;-74
2023/09/03 04:48:46;;;;;;;8.82;7.95;;;;;;;;;;4988815;28;99882;-74
2023/09/03 04:51:13;;;;;;;7.40;6.70;;;;;;;;;;4991002;28;101815;-73
2023/09/03 04:53:40;;;;;;;10.38;7.13;;;;;;;;;;4987958;28;100198;-73
2023/09/03 04:56:12;;;;;;;9.32;7.57;;;;;;;;;;4987253;28;101276;-74
2023/09/03 04:58:39;;;;;;;7.68;6.88;;;;;;;;;;4988019;28;101384;-74
2023/09/03 05:01:15;;;;;;;8.38;7.57;;;;;;;;;;4987888;28;100269;-74
2023/09/03 05:03:44;;;;;;;10.68;7.63;;;;;;;;;;4987312;28;100082;-74
2023/09/03 05:06:13;;;;;;;7.43;6.72;;;;;;;;;;4987687;28;98675;-73
2023/09/03 05:08:41;;;;;;;8.52;6.78;;;;;;;;;;4987992;28;101805;-73
2023/09/03 05:11:08;;;;;;;8.80;6.75;;;;;;;;;;4991086;28;99268;-74
2023/09/03 05:13:35;;;;;;;8.05;7.10;;;;;;;;;;4987208;28;101005;-73
2023/09/03 05:16:04;;;;;;;7.93;7.13;;;;;;;;;;4987282;28;99964;-73
2023/09/03 05:18:32;;;;;;;7.68;6.90;;;;;;;;;;4986704;28;98540;-75
2023/09/03 05:21:08;;;;;;;9.05;7.75;;;;;;;;;;4989089;28;99379;-75
2023/09/03 05:23:36;;;;;;;7.72;7.03;;;;;;;;;;4987576;28;102397;-74
2023/09/03 05:26:03;;;;;;;9.82;7.53;;;;;;;;;;4986739;28;101993;-74
2023/09/03 05:28:29;;;;;;;9.30;6.97;;;;;;;;;;4989288;28;98483;-75
2023/09/03 05:30:56;;;;;;;14.63;8.63;;;;;;;;;;4986771;28;101667;-74
2023/09/03 05:33:22;;;;;;;9.55;8.07;;;;;;;;;;4991574;28;101037;-74
2023/09/03 05:35:49;;;;;;;8.98;7.57;;;;;;;;;;4988302;28;99574;-74
2023/09/03 05:38:15;;;;;;;9.90;8.93;;;;;;;;;;4988043;28;99449;-75
2023/09/03 05:40:42;;;;;;;9.25;6.93;;;;;;;;;;4993185;28;100342;-74
2023/09/03 05:43:08;;;;;;;8.70;8.00;;;;;;;;;;4987506;28;100069;-75
2023/09/03 05:45:41;;;;;;;15.82;8.57;;;;;;;;;;4985888;28;101517;-75
2023/09/03 05:48:08;;;;;;;10.82;7.80;;;;;;;;;;4988824;28;99390;-75
2023/09/03 05:50:36;;;;;;;8.20;7.45;;;;;;;;;;4986867;28;99225;-74
2023/09/03 05:53:02;;;;;;;12.20;7.60;;;;;;;;;;4988277;28;98554;-74
2023/09/03 05:55:29;;;;;;;8.32;7.55;;;;;;;;;;4991597;28;99202;-74
2023/09/03 05:57:59;;;;;;;11.23;7.65;;;;;;;;;;4987092;28;101370;-74
2023/09/03 06:00:26;;;;;;;13.43;8.55;;;;;;;;;;4985745;28;102778;-74
2023/09/03 06:02:56;;;;;;;9.18;7.82;;;;;;;;;;4987098;28;100046;-73
2023/09/03 06:05:29;;;;;;;8.95;8.05;;;;;;;;;;4986573;28;100383;-73
2023/09/03 06:07:58;;;;;;;9.30;7.72;;;;;;;;;;4987583;28;100094;-73
2023/09/03 06:10:24;;;;;;;8.40;7.47;;;;;;;;;;4987587;28;100219;-73
2023/09/03 06:12:51;;;;;;;8.05;7.22;;;;;;;;;;4988187;28;99291;-74
2023/09/03 06:15:17;;;;;;;7.55;6.82;;;;;;;;;;4986356;28;100513;-74
2023/09/03 06:17:49;;;;;;;8.20;7.47;;;;;;;;;;4991944;28;99187;-75
2023/09/03 06:20:16;;;;;;;14.50;8.00;;;;;;;;;;4986947;28;100122;-75
2023/09/03 06:22:42;;;;;;;8.85;7.93;;;;;;;;;;4988247;28;99167;-74
2023/09/03 06:25:09;;;;;;;8.55;7.72;;;;;;;;;;4983788;28;99762;-74
2023/09/03 06:27:35;;;;;;;8.02;7.25;;;;;;;;;;4966992;28;100117;-74
2023/09/03 06:30:02;;;;;;;8.45;7.70;;;;;;;;;;4967575;28;99987;-75
2023/09/03 06:32:28;;;;;;;8.77;7.88;;;;;;;;;;4967383;28;99878;-74
2023/09/03 06:34:58;;;;;;;16.58;8.32;;;;;;;;;;4967106;28;100202;-74
2023/09/03 06:37:24;;;;;;;10.80;8.38;;;;;;;;;;4968207;28;99109;-75
2023/09/03 06:39:51;;;;;;;13.93;8.57;;;;;;;;;;4970816;28;100267;-74
2023/09/03 06:42:17;;;;;;;12.55;9.05;;;;;;;;;;4967397;28;98904;-75
2023/09/03 06:44:43;;;;;;;9.70;8.85;;;;;;;;;;4967698;28;99160;-74
2023/09/03 06:47:10;;;;;;;10.50;8.85;;;;;;;;;;4967681;28;99524;-74
2023/09/03 06:49:36;;;;;;;10.00;8.30;;;;;;;;;;4966675;28;99290;-73
2023/09/03 06:52:06;;;;;;;10.57;8.93;;;;;;;;;;4967255;28;100619;-74
2023/09/03 06:54:32;;;;;;;10.77;9.10;;;;;;;;;;4967176;28;99506;-73
2023/09/03 06:56:58;;;;;;;9.65;8.52;;;;;;;;;;4966738;28;100066;-73
2023/09/03 06:59:25;;;;;;;10.02;9.13;;;;;;;;;;4971301;28;99271;-73
2023/09/03 07:02:00;;;;;;;9.05;8.15;;;;;;;;;;4985654;28;100475;-75
2023/09/03 07:04:26;;;;;;;11.45;8.52;;;;;;;;;;4976505;28;100273;-75
2023/09/03 07:06:53;;;;;;;8.80;8.02;;;;;;;;;;4967876;28;99681;-74
2023/09/03 07:09:19;;;;;;;10.10;9.05;;;;;;;;;;4982400;28;100044;-71
2023/09/03 07:11:46;;;;;;;12.20;10.20;;;;;;;;;;4987040;28;99222;-73
2023/09/03 07:14:12;;;;;;;9.18;8.38;;;;;;;;;;4980350;28;100969;-73
2023/09/03 07:16:39;;;;;;;9.32;8.30;;;;;;;;;;4966016;28;100552;-74
2023/09/03 07:19:06;;;;;;;8.50;7.70;;;;;;;;;;4967235;28;99817;-74
2023/09/03 07:21:33;;;;;;;10.23;8.27;;;;;;;;;;4969949;28;99885;-74
2023/09/03 07:23:59;;;;;;;8.63;7.82;;;;;;;;;;4966439;28;100195;-74
2023/09/03 07:26:25;;;;;;;9.73;8.80;;;;;;;;;;4978653;28;100207;-74
2023/09/03 07:28:52;;;;;;;11.52;8.35;;;;;;;;;;4986892;28;99930;-74
2023/09/03 07:31:18;;;;;;;9.10;8.30;;;;;;;;;;4986168;28;99863;-74
2023/09/03 07:33:45;;;;;;;10.02;8.40;;;;;;;;;;4986582;28;100577;-73
2023/09/03 07:36:11;;;;;;;9.77;8.57;;;;;;;;;;4986806;28;99036;-74
2023/09/03 07:38:38;;;;;;;12.38;8.27;;;;;;;;;;4985658;28;99755;-74
2023/09/03 07:41:04;;;;;;;8.80;7.70;;;;;;;;;;4988267;28;100318;-74
2023/09/03 07:43:31;;;;;;;11.40;7.72;;;;;;;;;;4996894;28;99671;-74
2023/09/03 07:45:57;;;;;;;9.85;7.57;;;;;;;;;;4995438;28;100253;-75
2023/09/03 07:48:24;;;;;;;10.18;7.70;;;;;;;;;;4994262;28;99952;-73
2023/09/03 07:50:51;;;;;;;9.20;8.20;;;;;;;;;;4993828;28;99393;-74
2023/09/03 07:53:17;;;;;;;10.65;8.13;;;;;;;;;;4991282;28;98591;-74
2023/09/03 07:55:45;;;;;;;9.93;8.50;;;;;;;;;;4993635;28;98823;-75
2023/09/03 07:58:11;;;;;;;9.00;8.20;;;;;;;;;;4993063;28;99164;-75
2023/09/03 08:00:38;;;;;;;10.02;8.15;;;;;;;;;;4979087;28;99537;-74
2023/09/03 08:03:05;;;;;;;8.63;7.88;;;;;;;;;;4988467;28;99982;-74
2023/09/03 08:05:31;;;;;;;9.65;8.63;;;;;;;;;;4992835;28;100526;-74
2023/09/03 08:07:59;;;;;;;9.88;8.88;;;;;;;;;;4973242;28;99841;-74
2023/09/03 08:10:26;;;;;;;13.73;8.30;;;;;;;;;;4973000;28;100438;-74
2023/09/03 08:12:52;;;;;;;9.73;8.90;;;;;;;;;;4972465;28;100367;-73
2023/09/03 08:15:19;;;;;;;13.07;8.82;;;;;;;;;;4984976;28;100333;-73
2023/09/03 08:18:03;;;;;;;10.93;9.80;;;;;;;;;;4993436;28;98961;-75
2023/09/03 08:20:29;;;;;;;10.25;9.20;;;;;;;;;;4992514;28;98606;-73
2023/09/03 08:22:56;;;;;;;10.48;9.45;;;;;;;;;;4992951;28;99093;-74
2023/09/03 08:25:22;;;;;;;9.73;8.80;;;;;;;;;;4992740;28;99430;-75
2023/09/03 08:27:49;;;;;;;12.43;9.52;;;;;;;;;;4994908;28;101277;-74
2023/09/03 08:30:17;;;;;;;10.30;8.73;;;;;;;;;;4992669;28;100010;-75
2023/09/03 08:32:44;;;;;;;9.32;7.72;;;;;;;;;;4992707;28;100112;-74
2023/09/03 08:35:10;;;;;;;8.38;7.57;;;;;;;;;;4990676;28;100017;-73
2023/09/03 08:37:36;;;;;;;9.20;8.35;;;;;;;;;;4992838;28;99987;-74
2023/09/03 08:40:03;;;;;;;13.07;7.95;;;;;;;;;;4992779;28;100021;-74
2023/09/03 08:42:30;;;;;;;8.93;7.63;;;;;;;;;;4991563;28;99935;-71
2023/09/03 08:45:03;;;;;;;8.65;7.85;;;;;;;;;;4993165;28;100045;-74
2023/09/03 08:47:30;;;;;;;17.00;7.63;;;;;;;;;;4992347;28;99246;-75
2023/09/03 08:49:58;;;;;;;10.02;8.27;;;;;;;;;;4995355;28;99169;-73
2023/09/03 08:52:26;;;;;;;8.65;7.85;;;;;;;;;;4991018;28;100765;-74
2023/09/03 08:54:53;;;;;;;7.43;6.82;;;;;;;;;;4988443;28;99957;-76
2023/09/03 08:57:20;;;;;;;8.07;7.38;;;;;;;;;;4988832;28;98931;-75
2023/09/03 08:59:46;;;;;;;8.45;7.57;;;;;;;;;;4989114;28;99977;-73
2023/09/03 09:02:14;;;;;;;7.78;7.18;;;;;;;;;;4988068;28;99052;-73
2023/09/03 09:04:41;;;;;;;8.25;7.53;;;;;;;;;;4989339;28;100071;-74
2023/09/03 09:07:08;;;;;;;5.75;5.13;;;;;;;;;;4989809;28;99451;-74
2023/09/03 09:09:35;;;;;;;8.68;7.80;;;;;;;;;;4975573;28;100001;-75
2023/09/03 09:12:06;;;;;;;7.65;7.05;;;;;;;;;;4988011;28;98469;-75
2023/09/03 09:14:35;;;;;;;7.93;6.50;;;;;;;;;;4985613;28;99590;-75
2023/09/03 09:17:02;;;;;;;7.85;6.80;;;;;;;;;;4968091;28;99278;-75
2023/09/03 09:19:28;;;;;;;10.20;5.60;;;;;;;;;;4968916;28;99604;-75
2023/09/03 09:21:55;;;;;;;8.75;4.10;;;;;;;;;;4972664;28;100056;-75
2023/09/03 09:24:21;;;;;;;4.45;4.03;;;;;;;;;;4982033;28;99995;-74
2023/09/03 09:26:48;;;;;;;4.63;4.22;;;;;;;;;;4987443;28;99582;-73
2023/09/03 09:29:14;;;;;;;4.95;4.22;;;;;;;;;;4968677;28;100322;-72
2023/09/03 09:31:41;;;;;;;4.38;4.07;;;;;;;;;;4971323;28;100117;-73
2023/09/03 09:34:12;;;;;;;3.78;3.53;;;;;;;;;;4969280;28;99913;-73
2023/09/03 09:36:51;;;;;;;4.00;3.67;;;;;;;;;;4968827;28;99591;-74
2023/09/03 09:39:18;;;;;;;5.35;3.70;;;;;;;;;;4967803;28;100266;-74
2023/09/03 09:41:44;;;;;;;4.93;3.58;;;;;;;;;;4968152;28;100222;-74
2023/09/03 09:44:10;;;;;;;4.25;3.97;;;;;;;;;;4967838;28;100795;-73
2023/09/03 09:46:37;;;;;;;3.90;3.60;;;;;;;;;;4968659;28;99225;-74
2023/09/03 09:49:04;;;;;;;3.58;3.30;;;;;;;;;;4968897;28;99326;-75
2023/09/03 09:51:30;;;;;;;4.93;3.38;;;;;;;;;;4967028;28;100167;-75
2023/09/03 09:54:01;;;;;;;5.47;2.50;;;;;;;;;;4971921;28;99742;-73
2023/09/03 09:56:28;;;;;;;3.15;2.75;;;;;;;;;;4967929;28;100273;-74
2023/09/03 09:58:54;;;;;;;6.32;3.80;;;;;;;;;;4968265;28;99394;-74
2023/09/03 10:01:21;;;;;;;5.70;3.58;;;;;;;;;;4968078;28;99827;-74
2023/09/03 10:03:48;;;;;;;3.88;3.67;;;;;;;;;;4967550;28;99126;-75
2023/09/03 10:06:16;;;;;;;6.07;3.70;;;;;;;;;;4966543;28;101013;-72
2023/09/03 10:08:44;;;;;;;4.13;3.30;;;;;;;;;;4968382;28;100208;-74
2023/09/03 10:11:14;;;;;;;3.35;3.13;;;;;;;;;;4967929;28;100460;-74
2023/09/03 10:13:42;;;;;;;3.85;3.50;;;;;;;;;;4967653;28;99990;-74
2023/09/03 10:16:09;;;;;;;4.00;3.30;;;;;;;;;;4971434;28;99027;-74
2023/09/03 10:18:39;;;;;;;6.65;3.40;;;;;;;;;;4967651;28;99580;-74
2023/09/03 10:21:06;;;;;;;4.50;3.92;;;;;;;;;;4967508;28;100173;-73
2023/09/03 10:23:35;;;;;;;4.68;4.00;;;;;;;;;;4968148;28;100133;-75
2023/09/03 10:26:03;;;;;;;8.25;3.72;;;;;;;;;;4967968;28;100207;-74
2023/09/03 10:28:34;;;;;;;3.60;3.30;;;;;;;;;;4967078;28;99286;-74
2023/09/03 10:31:01;;;;;;;5.18;3.22;;;;;;;;;;4967964;28;99502;-74
2023/09/03 10:33:27;;;;;;;2.00;1.80;;;;;;;;;;4966910;28;100146;-75
2023/09/03 10:36:10;;;;;;;2.33;2.13;;;;;;;;;;4967884;28;99929;-74
2023/09/03 10:38:37;;;;;;;1.40;1.30;;;;;;;;;;4971222;28;99828;-73
2023/09/03 10:41:16;;;;;;;1.65;1.00;;;;;;;;;;4967309;28;98892;-73
2023/09/03 10:43:46;;;;;;;4.10;1.83;;;;;;;;;;4967659;28;100156;-75
2023/09/03 10:46:13;;;;;;;3.85;3.55;;;;;;;;;;4967474;28;100166;-75
2023/09/03 10:48:39;;;;;;;5.15;3.85;;;;;;;;;;4967573;28;99016;-74
2023/09/03 10:51:06;;;;;;;6.88;3.35;;;;;;;;;;4967738;28;99200;-74
2023/09/03 10:53:36;;;;;;;4.43;3.03;;;;;;;;;;4967858;28;99768;-75
2023/09/03 10:56:07;;;;;;;6.93;2.47;;;;;;;;;;4966486;28;99835;-73
2023/09/03 10:58:33;;;;;;;4.47;2.35;;;;;;;;;;4968209;28;100606;-74
2023/09/03 11:01:19;;;;;;;3.03;2.40;;;;;;;;;;4974067;28;98405;-75
2023/09/03 11:03:46;;;;;;;2.55;2.30;;;;;;;;;;4967383;28;99905;-73
2023/09/03 11:06:14;;;;;;;2.40;2.20;;;;;;;;;;4967567;28;99328;-75
2023/09/03 11:08:40;;;;;;;4.75;2.15;;;;;;;;;;4966555;28;99884;-74
2023/09/03 11:11:09;;;;;;;3.40;1.73;;;;;;;;;;4967390;28;99124;-74
2023/09/03 11:13:36;;;;;;;1.73;1.63;;;;;;;;;;4967619;28;99463;-73
2023/09/03 11:16:05;;;;;;;2.33;1.30;;;;;;;;;;4965026;28;100380;-73
2023/09/03 11:18:32;;;;;;;2.30;2.00;;;;;;;;;;4966606;28;98749;-74
2023/09/03 11:20:59;;;;;;;1.90;1.80;;;;;;;;;;4966299;28;100822;-72
2023/09/03 11:23:28;;;;;;;2.40;1.90;;;;;;;;;;4969068;28;99173;-72
2023/09/03 11:26:14;;;;;;;14.05;3.25;;;;;;;;;;4966981;28;100459;-73
2023/09/03 11:28:45;;;;;;;1.70;1.60;;;;;;;;;;4967385;28;99293;-74
2023/09/03 11:31:12;;;;;;;3.17;1.50;;;;;;;;;;4966017;28;98469;-74
2023/09/03 11:33:38;;;;;;;6.82;2.53;;;;;;;;;;4967310;28;100200;-74
2023/09/03 11:36:06;;;;;;;1.60;1.50;;;;;;;;;;4967091;28;98896;-73
2023/09/03 11:38:33;;;;;;;2.88;2.10;;;;;;;;;;4966717;28;99838;-73
2023/09/03 11:41:00;;;;;;;1.95;1.85;;;;;;;;;;4966948;28;100302;-73
2023/09/03 11:43:46;;;;;;;4.90;2.15;;;;;;;;;;4970039;28;100311;-73
2023/09/03 11:46:13;;;;;;;1.98;1.70;;;;;;;;;;4966129;28;100954;-73
2023/09/03 11:48:40;;;;;;;1.75;1.65;;;;;;;;;;4968060;28;100007;-74
2023/09/03 11:51:07;;;;;;;1.92;1.77;;;;;;;;;;4967196;28;100074;-73
2023/09/03 11:53:42;;;;;;;1.50;1.40;;;;;;;;;;4967837;28;99435;-75
2023/09/03 11:56:12;;;;;;;1.55;1.45;;;;;;;;;;4967189;28;98953;-74
2023/09/03 11:58:38;;;;;;;1.35;1.27;;;;;;;;;;4966695;28;99214;-73
2023/09/03 12:01:07;;;;;;;1.88;1.77;;;;;;;;;;4966766;28;100570;-73
2023/09/03 12:03:35;;;;;;;1.40;1.30;;;;;;;;;;4965810;28;99903;-73
2023/09/03 12:06:02;;;;;;;4.82;1.48;;;;;;;;;;4987267;28;99515;-73
2023/09/03 12:08:32;;;;;;;1.75;1.10;;;;;;;;;;4981025;28;99035;-73
2023/09/03 12:10:58;;;;;;;2.38;1.48;;;;;;;;;;4966096;28;99833;-73
2023/09/03 12:13:29;;;;;;;2.35;1.05;;;;;;;;;;4971980;28;100148;-72
2023/09/03 12:16:23;;;;;;;3.13;1.10;;;;;;;;;;4985871;28;98997;-73
2023/09/03 12:18:57;;;;;;;1.27;1.17;;;;;;;;;;4984497;28;100032;-73
2023/09/03 12:21:36;;;;;;;2.55;1.30;;;;;;;;;;4985859;28;100307;-72
2023/09/03 12:24:04;;;;;;;1.25;1.15;;;;;;;;;;4986356;28;99153;-74
2023/09/03 12:26:37;;;;;;;1.83;1.73;;;;;;;;;;4975368;28;99251;-73
2023/09/03 12:29:04;;;;;;;1.48;1.38;;;;;;;;;;4973347;28;98796;-74
2023/09/03 12:31:40;;;;;;;1.75;1.60;;;;;;;;;;4980061;28;99180;-73
2023/09/03 12:34:08;;;;;;;1.80;1.70;;;;;;;;;;4988741;28;100338;-73
2023/09/03 12:36:51;;;;;;;1.67;1.58;;;;;;;;;;4988737;28;101288;-75
2023/09/03 12:39:26;;;;;;;3.22;1.30;;;;;;;;;;4976206;28;100620;-72
2023/09/03 12:41:53;;;;;;;2.05;1.55;;;;;;;;;;4969500;28;100743;-73
2023/09/03 12:44:19;;;;;;;1.25;1.08;;;;;;;;;;4989237;28;98962;-73
2023/09/03 12:46:46;;;;;;;0.93;0.90;;;;;;;;;;4981277;28;99253;-73
2023/09/03 12:49:13;;;;;;;1.10;1.00;;;;;;;;;;4968499;28;100346;-73
2023/09/03 12:51:41;;;;;;;0.90;0.90;;;;;;;;;;4976280;28;99071;-73
2023/09/03 12:54:08;;;;;;;1.15;0.98;;;;;;;;;;4988730;28;98738;-73
2023/09/03 12:56:35;;;;;;;1.88;1.20;;;;;;;;;;4988767;28;100198;-73
2023/09/03 12:59:08;;;;;;;5.13;1.33;;;;;;;;;;4982685;28;98844;-73
2023/09/03 13:01:37;;;;;;;1.10;1.10;;;;;;;;;;4974671;28;100383;-72
2023/09/03 13:04:04;;;;;;;1.60;1.30;;;;;;;;;;4969579;28;99080;-74
2023/09/03 13:06:31;;;;;;;1.20;1.17;;;;;;;;;;4988196;28;99180;-73
2023/09/03 13:08:58;;;;;;;1.45;1.20;;;;;;;;;;4988367;28;99672;-72
2023/09/03 13:11:24;;;;;;;2.03;1.27;;;;;;;;;;4970287;28;98709;-73
2023/09/03 13:13:51;;;;;;;4.07;1.38;;;;;;;;;;4972750;28;98983;-73
2023/09/03 13:16:18;;;;;;;2.35;1.13;;;;;;;;;;4967885;28;99906;-75
2023/09/03 13:18:48;;;;;;;7.07;1.30;;;;;;;;;;4970148;28;98788;-73
2023/09/03 13:21:15;;;;;;;1.40;1.20;;;;;;;;;;4968770;28;98772;-72
2023/09/03 13:23:42;;;;;;;2.15;1.50;;;;;;;;;;4968163;28;99136;-73
2023/09/03 13:26:09;;;;;;;1.10;1.05;;;;;;;;;;4968211;28;100576;-73
2023/09/03 13:28:36;;;;;;;2.20;1.27;;;;;;;;;;4975085;28;100233;-73
2023/09/03 13:31:03;;;;;;;2.63;1.05;;;;;;;;;;4971271;28;101456;-72
2023/09/03 13:33:34;;;;;;;1.00;1.00;;;;;;;;;;4975478;28;100213;-73
2023/09/03 13:36:03;;;;;;;1.48;1.38;;;;;;;;;;4988780;28;99994;-73
2023/09/03 13:38:31;;;;;;;1.40;1.33;;;;;;;;;;4984292;28;100182;-71
2023/09/03 13:40:58;;;;;;;1.85;1.10;;;;;;;;;;4968384;28;99511;-72
2023/09/03 13:43:25;;;;;;;1.08;1.08;;;;;;;;;;4968011;28;100149;-73
2023/09/03 13:45:55;;;;;;;1.67;1.00;;;;;;;;;;4968486;28;99352;-74
2023/09/03 13:48:23;;;;;;;1.38;1.00;;;;;;;;;;4967264;28;99707;-73
2023/09/03 13:50:54;;;;;;;1.00;1.00;;;;;;;;;;4986231;28;99880;-73
2023/09/03 13:53:21;;;;;;;2.58;1.23;;;;;;;;;;4982164;28;99984;-73
2023/09/03 13:55:49;;;;;;;5.07;1.27;;;;;;;;;;4984229;28;99806;-74
2023/09/03 13:58:17;;;;;;;0.82;0.82;;;;;;;;;;4987148;28;99176;-74
2023/09/03 14:00:47;;;;;;;0.80;0.80;;;;;;;;;;4988496;28;100222;-73
2023/09/03 14:03:13;;;;;;;1.00;0.98;;;;;;;;;;4988044;28;100017;-74
2023/09/03 14:05:40;;;;;;;0.90;0.90;;;;;;;;;;4979861;28;100676;-73
2023/09/03 14:08:06;;;;;;;3.45;1.00;;;;;;;;;;4968812;28;99803;-73
2023/09/03 14:10:33;;;;;;;1.02;0.85;;;;;;;;;;4968102;28;100131;-73
2023/09/03 14:13:00;;;;;;;1.25;0.90;;;;;;;;;;4968008;28;99197;-72
2023/09/03 14:15:26;;;;;;;1.73;0.80;;;;;;;;;;4968807;28;101599;-73
2023/09/03 14:17:53;;;;;;;0.60;0.60;;;;;;;;;;4973423;28;100296;-74
2023/09/03 14:20:19;;;;;;;2.10;0.85;;;;;;;;;;4979602;28;100924;-74
2023/09/03 14:22:47;;;;;;;0.90;0.70;;;;;;;;;;4981905;28;100149;-74
2023/09/03 14:25:14;;;;;;;0.90;0.90;;;;;;;;;;4970979;28;99956;-73
2023/09/03 14:27:41;;;;;;;0.70;0.70;;;;;;;;;;4966148;28;100180;-74
2023/09/03 14:30:07;;;;;;;0.90;0.90;;;;;;;;;;4971165;28;100286;-73
2023/09/03 14:32:35;;;;;;;1.05;0.90;;;;;;;;;;4971862;28;99728;-73
2023/09/03 14:35:01;;;;;;;0.93;0.90;;;;;;;;;;4971017;28;100310;-73
2023/09/03 14:37:28;;;;;;;1.30;1.20;;;;;;;;;;4982256;28;98970;-74
2023/09/03 14:39:55;;;;;;;1.45;0.90;;;;;;;;;;4975444;28;99873;-73
2023/09/03 14:42:21;;;;;;;1.15;1.15;;;;;;;;;;4971775;28;100493;-74